Terminal Aerodrome Forecast
Issued by NWS

Home | Current Version | Previous Version | Text Only | Print | Product List | Glossary On
Versions: 1 2 3 4 5 6 7 8 9 10 11 12 13 14 15 16 17 18 19 20 21 22 23 24 25 26 27 28
000
FTUS44 KOUN 041130
TAFPNC
TAF
KPNC 041130Z 0412/0512 06005KT 5SM BR SCT250
      TEMPO 0412/0414 3SM BR
     FM041400 09006KT P6SM SCT050 SCT250
     FM042000 14011KT P6SM SCT100=

USA.gov is the U.S. government's official web portal to all federal, state and local government web resources and services.